Adventure Cat 2 — WDA9411 — position and weather

sailwx.info

Track history (hours):
 
Tides and Currents Weather Stations Pressure Air Temp Water Temp Dewpoint Dewpoint Depression Visibility Wind Speed Wind Dir Waves Ship Positions

Adventure Cat 2

Owner: ADVENTURE CAT INC, NAPA, CA. More information available from US FCC via Universal Licensing System and Coast Guard Vessel Documentation Center.

Last reported at 2018-Feb-18 23:29 UTC. Time now 2018-Feb-18 23:57 UTC.
Position N 37°49' W 122°25'.

Length 20 m; draft 3 m.

Type: Sailing vessel. MMSI: 366864850.

Date/timePositionNaut miles runAvg speedWind from/ knotsBaromVisibWave heightAir tempDewpointWater temp
2018-Feb-18 23:29N 37°49' W 122°25'0 0.0
2018-Feb-18 22:59N 37°49' W 122°25'3 4.5
2018-Feb-18 22:14N 37°49' W 122°29'2 4.5
2018-Feb-18 21:53N 37°50' W 122°27'3 1.4
2018-Feb-18 19:54N 37°49' W 122°25'0 0.0
2018-Feb-18 02:07N 37°49' W 122°25'0 0.0
2018-Feb-18 01:56N 37°49' W 122°25'0 0.0
2018-Feb-18 01:30N 37°49' W 122°25'2 4.4
2018-Feb-18 01:00N 37°49' W 122°27'2 3.6
2018-Feb-18 00:31N 37°50' W 122°28'3 6.1
2018-Feb-17 23:59N 37°49' W 122°25'0 0.0
2018-Feb-17 23:30N 37°49' W 122°25'0 0.0
2018-Feb-17 22:59N 37°49' W 122°25'0 0.4
2018-Feb-17 22:30N 37°49' W 122°25'3 6.9
2018-Feb-17 22:00N 37°49' W 122°29'2 3.8
2018-Feb-17 21:27N 37°51' W 122°27'3 5.8
2018-Feb-17 20:59N 37°49' W 122°25'0 0.0
2018-Feb-17 20:30N 37°49' W 122°25'0 0.0
2018-Feb-17 20:00N 37°49' W 122°25'0 0.0
2018-Feb-17 19:29N 37°49' W 122°25'0 0.0
2018-Feb-17 01:54N 37°49' W 122°25'2 4.3
2018-Feb-17 01:30N 37°49' W 122°27'2 3.1
2018-Feb-17 00:59N 37°49' W 122°29'2 4.5
2018-Feb-17 00:30N 37°50' W 122°27'2 4.8
2018-Feb-17 00:00N 37°49' W 122°25'0 0.0
2018-Feb-16 23:27N 37°49' W 122°25'0 0.0
2018-Feb-16 22:59N 37°49' W 122°25'0 0.5
2018-Feb-16 22:30N 37°49' W 122°25'3 6.1
2018-Feb-16 22:00N 37°49' W 122°29'2 4.2
2018-Feb-16 21:30N 37°51' W 122°27'2 4.2
2018-Feb-16 20:55N 37°49' W 122°25'0 0.0
2018-Feb-16 20:29N 37°49' W 122°25'0 0.0
2018-Feb-16 20:00N 37°49' W 122°25'0 0.0
2018-Feb-16 19:30N 37°49' W 122°25'0 0.0
2018-Feb-15 21:02N 37°49' W 122°25'0 0.1
2018-Feb-15 21:00N 37°49' W 122°25'2 3.2
2018-Feb-15 20:30N 37°49' W 122°27'2 3.7
2018-Feb-15 20:01N 37°49' W 122°29'3 5.0
2018-Feb-15 19:30N 37°52' W 122°27'2 3.5
2018-Feb-15 18:59N 37°51' W 122°25'1 2.5
2018-Feb-15 18:30N 37°50' W 122°25'1 1.9
2018-Feb-15 18:00N 37°49' W 122°25'0 0.0
2018-Feb-15 17:30N 37°49' W 122°25'0 0.0
2018-Feb-15 17:00N 37°49' W 122°25'0 0.0
2018-Feb-15 02:01N 37°49' W 122°25'0 8.7
2018-Feb-15 02:00N 37°49' W 122°24'4 3.1
2018-Feb-15 00:48N 37°49' W 122°29'2 8.1
2018-Feb-15 00:30N 37°52' W 122°28'4 0.2
2018-Feb-14 00:11N 37°49' W 122°25'0 1.3
2018-Feb-14 00:00N 37°49' W 122°24'4 7.2
2018-Feb-13 23:30N 37°52' W 122°25'611.3
2018-Feb-13 22:59N 37°58' W 122°26'  
Track history (hours):
 
Tides and Currents Weather Stations Pressure Air Temp Water Temp Dewpoint Dewpoint Depression Visibility Wind Speed Wind Dir Waves Ship Positions

Adventure Cat 2

Owner: ADVENTURE CAT INC, NAPA, CA. More information available from US FCC via Universal Licensing System and Coast Guard Vessel Documentation Center.

Last reported at 2018-Feb-18 23:29 UTC. Time now 2018-Feb-18 23:57 UTC.
Position N 37°49' W 122°25'.

Length 20 m; draft 3 m.

Type: Sailing vessel. MMSI: 366864850.

Date/timePositionNaut miles runAvg speedWind from/ knotsBaromVisibWave heightAir tempDewpointWater temp
2018-Feb-18 23:29N 37°49' W 122°25'0 0.0
2018-Feb-18 22:59N 37°49' W 122°25'3 4.5
2018-Feb-18 22:14N 37°49' W 122°29'2 4.5
2018-Feb-18 21:53N 37°50' W 122°27'3 1.4
2018-Feb-18 19:54N 37°49' W 122°25'0 0.0
2018-Feb-18 02:07N 37°49' W 122°25'0 0.0
2018-Feb-18 01:56N 37°49' W 122°25'0 0.0
2018-Feb-18 01:30N 37°49' W 122°25'2 4.4
2018-Feb-18 01:00N 37°49' W 122°27'2 3.6
2018-Feb-18 00:31N 37°50' W 122°28'3 6.1
2018-Feb-17 23:59N 37°49' W 122°25'0 0.0
2018-Feb-17 23:30N 37°49' W 122°25'0 0.0
2018-Feb-17 22:59N 37°49' W 122°25'0 0.4
2018-Feb-17 22:30N 37°49' W 122°25'3 6.9
2018-Feb-17 22:00N 37°49' W 122°29'2 3.8
2018-Feb-17 21:27N 37°51' W 122°27'3 5.8
2018-Feb-17 20:59N 37°49' W 122°25'0 0.0
2018-Feb-17 20:30N 37°49' W 122°25'0 0.0
2018-Feb-17 20:00N 37°49' W 122°25'0 0.0
2018-Feb-17 19:29N 37°49' W 122°25'0 0.0
2018-Feb-17 01:54N 37°49' W 122°25'2 4.3
2018-Feb-17 01:30N 37°49' W 122°27'2 3.1
2018-Feb-17 00:59N 37°49' W 122°29'2 4.5
2018-Feb-17 00:30N 37°50' W 122°27'2 4.8
2018-Feb-17 00:00N 37°49' W 122°25'0 0.0
2018-Feb-16 23:27N 37°49' W 122°25'0 0.0
2018-Feb-16 22:59N 37°49' W 122°25'0 0.5
2018-Feb-16 22:30N 37°49' W 122°25'3 6.1
2018-Feb-16 22:00N 37°49' W 122°29'2 4.2
2018-Feb-16 21:30N 37°51' W 122°27'2 4.2
2018-Feb-16 20:55N 37°49' W 122°25'0 0.0
2018-Feb-16 20:29N 37°49' W 122°25'0 0.0
2018-Feb-16 20:00N 37°49' W 122°25'0 0.0
2018-Feb-16 19:30N 37°49' W 122°25'0 0.0
2018-Feb-15 21:02N 37°49' W 122°25'0 0.1
2018-Feb-15 21:00N 37°49' W 122°25'2 3.2
2018-Feb-15 20:30N 37°49' W 122°27'2 3.7
2018-Feb-15 20:01N 37°49' W 122°29'3 5.0
2018-Feb-15 19:30N 37°52' W 122°27'2 3.5
2018-Feb-15 18:59N 37°51' W 122°25'1 2.5
2018-Feb-15 18:30N 37°50' W 122°25'1 1.9
2018-Feb-15 18:00N 37°49' W 122°25'0 0.0
2018-Feb-15 17:30N 37°49' W 122°25'0 0.0
2018-Feb-15 17:00N 37°49' W 122°25'0 0.0
2018-Feb-15 02:01N 37°49' W 122°25'0 8.7
2018-Feb-15 02:00N 37°49' W 122°24'4 3.1
2018-Feb-15 00:48N 37°49' W 122°29'2 8.1
2018-Feb-15 00:30N 37°52' W 122°28'4 0.2
2018-Feb-14 00:11N 37°49' W 122°25'0 1.3
2018-Feb-14 00:00N 37°49' W 122°24'4 7.2
2018-Feb-13 23:30N 37°52' W 122°25'611.3
2018-Feb-13 22:59N 37°58' W 122°26'  

Dump ship's entire track history